createdAt,value
2023-02-23T00:01:58.322Z,86.67
2023-02-23T00:04:27.603Z,87.53
2023-02-23T00:06:55.541Z,88.02
2023-02-23T00:09:27.789Z,88.67
2023-02-23T00:11:57.581Z,88.75
2023-02-23T00:14:28.429Z,88.63
2023-02-23T00:16:56.497Z,89.17
2023-02-23T00:19:25.186Z,88.98
2023-02-23T00:21:58.792Z,89.40
2023-02-23T00:24:28.020Z,89.64
2023-02-23T00:26:56.154Z,90.16
2023-02-23T00:29:26.406Z,90.43
2023-02-23T00:31:56.530Z,89.67
2023-02-23T00:34:24.486Z,89.99
2023-02-23T00:36:55.570Z,90.77
2023-02-23T00:39:26.845Z,90.32
2023-02-23T00:41:55.917Z,90.23
2023-02-23T00:44:25.615Z,90.30
2023-02-23T00:46:53.803Z,90.76
2023-02-23T00:49:23.128Z,90.16
2023-02-23T00:51:52.252Z,90.34
2023-02-23T00:54:23.158Z,90.69
2023-02-23T00:56:51.731Z,91.28
2023-02-23T00:59:20.425Z,90.72
2023-02-23T01:01:48.609Z,90.67
2023-02-23T01:04:16.786Z,91.03
2023-02-23T01:06:46.326Z,90.14
2023-02-23T01:09:27.232Z,90.42
2023-02-23T01:12:01.727Z,90.25
2023-02-23T01:14:31.331Z,90.64
2023-02-23T01:16:59.302Z,91.00
2023-02-23T01:19:27.209Z,91.38
2023-02-23T01:21:55.064Z,92.13
2023-02-23T01:24:22.933Z,92.03
2023-02-23T01:26:50.755Z,92.66
2023-02-23T01:29:20.008Z,93.72
2023-02-23T01:31:51.229Z,94.25
2023-02-23T01:34:21.682Z,94.21
2023-02-23T01:36:50.110Z,94.95
2023-02-23T01:39:19.671Z,96.15
2023-02-23T01:41:47.631Z,95.95
2023-02-23T01:44:48.477Z,96.51
2023-02-23T01:47:20.408Z,96.35
2023-02-23T01:49:48.776Z,96.36
2023-02-23T01:52:18.361Z,95.98
2023-02-23T01:54:51.289Z,95.86
2023-02-23T01:57:24.920Z,96.48
2023-02-23T01:59:54.058Z,96.74
2023-02-23T02:02:32.951Z,97.16
2023-02-23T02:05:01.857Z,96.57
2023-02-23T02:07:35.190Z,96.74
2023-02-23T02:10:17.314Z,96.75
2023-02-23T02:12:51.977Z,96.79
2023-02-23T02:15:26.007Z,97.79
2023-02-23T02:18:09.272Z,98.12
2023-02-23T02:21:06.163Z,98.70
2023-02-23T02:24:12.146Z,98.87
2023-02-23T02:26:50.889Z,99.27
2023-02-23T02:29:56.095Z,99.29
2023-02-23T02:33:06.418Z,100.00
2023-02-23T02:36:11.854Z,100.00
2023-02-23T02:38:53.880Z,100.00
2023-02-23T02:41:35.529Z,100.00
2023-02-23T02:44:13.064Z,100.00
2023-02-23T02:46:45.495Z,100.00
2023-02-23T02:49:18.398Z,100.00
2023-02-23T02:51:52.868Z,100.00
2023-02-23T02:54:28.286Z,100.00
2023-02-23T02:57:00.499Z,100.00
2023-02-23T02:59:46.582Z,100.00
2023-02-23T03:02:35.694Z,100.00
2023-02-23T03:05:21.119Z,100.00
2023-02-23T03:08:16.404Z,100.00
2023-02-23T03:11:08.780Z,100.00
2023-02-23T03:14:06.820Z,100.00
2023-02-23T03:17:02.921Z,100.00
2023-02-23T03:19:53.554Z,100.00
2023-02-23T03:22:45.010Z,100.00
2023-02-23T03:25:35.030Z,100.00
2023-02-23T03:28:29.398Z,100.00
2023-02-23T03:31:26.603Z,100.00
2023-02-23T03:34:19.750Z,100.00
2023-02-23T03:37:11.889Z,100.00
2023-02-23T03:40:02.616Z,100.00
2023-02-23T03:42:53.259Z,100.00
2023-02-23T03:45:43.917Z,100.00
2023-02-23T03:48:32.395Z,100.00
2023-02-23T03:51:24.293Z,100.00
2023-02-23T03:54:17.260Z,100.00
2023-02-23T03:57:06.712Z,100.00
2023-02-23T03:59:57.146Z,100.00
2023-02-23T04:02:44.842Z,100.00
2023-02-23T04:05:35.431Z,100.00
2023-02-23T04:08:25.110Z,100.00
2023-02-23T04:11:19.975Z,100.00
2023-02-23T04:13:50.130Z,100.00
2023-02-23T04:16:17.231Z,100.00
2023-02-23T04:18:46.606Z,100.00
2023-02-23T04:21:14.839Z,100.00
2023-02-23T04:23:44.221Z,100.00
2023-02-23T04:26:12.056Z,100.00
2023-02-23T04:28:39.951Z,100.00
2023-02-23T04:31:07.901Z,100.00
2023-02-23T04:33:35.709Z,100.00
2023-02-23T04:36:05.432Z,100.00
2023-02-23T04:38:33.262Z,100.00
2023-02-23T04:41:01.192Z,100.00
2023-02-23T04:43:29.203Z,100.00
2023-02-23T04:45:57.175Z,100.00
2023-02-23T04:48:26.996Z,100.00
2023-02-23T04:50:55.473Z,100.00
2023-02-23T04:53:25.532Z,100.00
2023-02-23T04:55:53.369Z,100.00
2023-02-23T04:58:21.224Z,100.00
2023-02-23T05:00:49.724Z,100.00
2023-02-23T05:03:18.443Z,100.00
2023-02-23T05:05:47.063Z,100.00
2023-02-23T05:08:14.899Z,100.00
2023-02-23T05:10:44.117Z,100.00
2023-02-23T05:13:12.009Z,100.00
2023-02-23T05:15:39.936Z,100.00
2023-02-23T05:18:08.345Z,100.00
2023-02-23T05:20:36.509Z,100.00
2023-02-23T05:23:04.653Z,100.00
2023-02-23T05:25:33.510Z,100.00
2023-02-23T05:28:02.725Z,100.00
2023-02-23T05:30:30.839Z,100.00
2023-02-23T05:32:58.766Z,100.00
2023-02-23T05:35:26.763Z,100.00
2023-02-23T05:37:54.892Z,100.00
2023-02-23T05:40:22.956Z,100.00
2023-02-23T05:42:50.823Z,100.00
2023-02-23T05:45:20.059Z,100.00
2023-02-23T05:47:48.229Z,100.00
2023-02-23T05:50:16.160Z,100.00
2023-02-23T05:52:44.231Z,100.00
2023-02-23T05:55:12.908Z,100.00
2023-02-23T05:57:42.695Z,100.00
2023-02-23T06:00:13.694Z,100.00
2023-02-23T06:02:43.250Z,100.00
2023-02-23T06:05:11.802Z,100.00
2023-02-23T06:07:39.702Z,100.00
2023-02-23T06:10:08.425Z,100.00
2023-02-23T06:12:36.422Z,100.00
2023-02-23T06:15:04.814Z,99.44
2023-02-23T06:17:32.958Z,96.20
2023-02-23T06:20:04.842Z,95.29
2023-02-23T06:22:32.767Z,92.12
2023-02-23T06:25:00.623Z,92.58
2023-02-23T06:27:30.761Z,90.66
2023-02-23T06:29:58.980Z,88.89
2023-02-23T06:32:27.707Z,85.79
2023-02-23T06:34:56.193Z,83.46
2023-02-23T06:37:25.769Z,83.02
2023-02-23T06:39:55.240Z,80.84
2023-02-23T06:42:23.106Z,79.30
2023-02-23T06:44:53.586Z,78.41
2023-02-23T06:47:21.526Z,78.81
2023-02-23T06:49:49.522Z,77.77
2023-02-23T06:52:17.485Z,76.91
2023-02-23T06:54:48.218Z,76.58
2023-02-23T06:57:16.561Z,77.06
2023-02-23T06:59:44.559Z,77.06
2023-02-23T07:02:14.194Z,77.63
2023-02-23T07:04:42.384Z,78.11
2023-02-23T07:07:11.445Z,78.67
2023-02-23T07:09:40.900Z,77.88
2023-02-23T07:12:11.829Z,76.40
2023-02-23T07:14:40.676Z,76.51
2023-02-23T07:17:11.564Z,75.89
2023-02-23T07:19:40.626Z,76.57
2023-02-23T07:22:08.575Z,76.94
2023-02-23T07:24:38.545Z,74.46
2023-02-23T07:27:06.633Z,73.95
2023-02-23T07:29:36.134Z,72.86
2023-02-23T07:32:06.540Z,71.43
2023-02-23T07:34:34.556Z,71.65
2023-02-23T07:37:02.462Z,72.45
2023-02-23T07:39:31.123Z,73.48
2023-02-23T07:41:59.078Z,72.91
2023-02-23T07:44:26.935Z,74.32
2023-02-23T07:46:56.397Z,74.24
2023-02-23T07:49:25.418Z,72.12
2023-02-23T07:51:53.358Z,69.21
2023-02-23T07:54:21.979Z,67.58
2023-02-23T07:56:49.862Z,66.76
2023-02-23T07:59:17.842Z,67.20
2023-02-23T08:01:45.868Z,66.63
2023-02-23T08:04:15.285Z,64.43
2023-02-23T08:06:43.345Z,62.63
2023-02-23T08:09:12.610Z,62.91
2023-02-23T08:11:40.570Z,61.84
2023-02-23T08:14:10.524Z,61.29
2023-02-23T08:16:38.448Z,60.88
2023-02-23T08:19:06.348Z,60.22
2023-02-23T08:21:38.119Z,59.59
2023-02-23T08:24:07.220Z,60.42
2023-02-23T08:26:36.729Z,61.44
2023-02-23T08:29:04.924Z,60.72
2023-02-23T08:31:32.922Z,59.81
2023-02-23T08:34:01.648Z,58.22
2023-02-23T08:36:29.630Z,57.85
2023-02-23T08:39:00.697Z,57.25
2023-02-23T08:41:29.074Z,57.18
2023-02-23T08:43:56.894Z,55.88
2023-02-23T08:46:24.826Z,55.10
2023-02-23T08:48:52.786Z,54.14
2023-02-23T08:51:20.978Z,54.36
2023-02-23T08:53:49.053Z,53.64
2023-02-23T08:56:18.479Z,53.63
2023-02-23T08:58:47.952Z,54.41
2023-02-23T09:01:18.979Z,55.25
2023-02-23T09:03:47.330Z,53.85
2023-02-23T09:06:18.431Z,51.99
2023-02-23T09:08:46.733Z,51.27
2023-02-23T09:11:14.645Z,51.25
2023-02-23T09:13:44.734Z,50.03
2023-02-23T09:16:12.610Z,51.10
2023-02-23T09:18:40.634Z,50.01
2023-02-23T09:21:11.919Z,49.27
2023-02-23T09:23:41.913Z,50.18
2023-02-23T09:26:10.067Z,49.49
2023-02-23T09:28:41.068Z,49.75
2023-02-23T09:31:12.526Z,48.39
2023-02-23T09:33:41.071Z,48.18
2023-02-23T09:36:13.778Z,47.63
2023-02-23T09:38:41.790Z,47.85
2023-02-23T09:41:35.335Z,46.72
2023-02-23T09:44:10.598Z,46.42
2023-02-23T09:46:49.013Z,47.03
2023-02-23T09:49:21.075Z,46.73
2023-02-23T09:51:55.349Z,45.98
2023-02-23T09:54:24.195Z,46.06
2023-02-23T09:56:54.275Z,46.58
2023-02-23T09:59:23.446Z,45.74
2023-02-23T10:02:01.544Z,45.25
2023-02-23T10:04:32.378Z,43.94
2023-02-23T10:07:04.916Z,43.91
2023-02-23T10:09:54.606Z,44.51
2023-02-23T10:12:34.302Z,44.63
2023-02-23T10:15:25.331Z,45.17
2023-02-23T10:18:05.098Z,44.87
2023-02-23T10:20:45.247Z,45.39
2023-02-23T10:23:17.978Z,45.68
2023-02-23T10:25:50.882Z,45.93
2023-02-23T10:28:22.408Z,44.97
2023-02-23T10:30:51.500Z,44.04
2023-02-23T10:33:25.407Z,44.03
2023-02-23T10:36:12.503Z,44.13
2023-02-23T10:38:41.979Z,44.44
2023-02-23T10:41:14.712Z,44.68
2023-02-23T10:43:43.022Z,44.32
2023-02-23T10:46:21.316Z,44.25
2023-02-23T10:48:52.065Z,43.20
2023-02-23T10:51:26.278Z,45.09
2023-02-23T10:53:54.329Z,45.29
2023-02-23T10:56:26.156Z,44.80
2023-02-23T10:58:56.539Z,43.01
2023-02-23T11:01:41.882Z,42.66
2023-02-23T11:04:23.103Z,41.98
2023-02-23T11:06:53.162Z,41.59
2023-02-23T11:09:41.288Z,40.77
2023-02-23T11:12:22.906Z,39.90
2023-02-23T11:14:51.925Z,40.09
2023-02-23T11:17:29.515Z,39.17
2023-02-23T11:20:08.973Z,39.36
2023-02-23T11:22:44.513Z,40.28
2023-02-23T11:25:17.740Z,40.67
2023-02-23T11:27:51.484Z,40.57
2023-02-23T11:30:24.525Z,40.21
2023-02-23T11:32:54.422Z,39.86
2023-02-23T11:35:32.292Z,39.46
2023-02-23T11:38:00.561Z,39.79
2023-02-23T11:40:31.488Z,39.73
2023-02-23T11:43:09.455Z,40.11
2023-02-23T11:45:45.880Z,40.82
2023-02-23T11:48:23.448Z,40.70
2023-02-23T11:50:54.321Z,39.64
2023-02-23T11:53:29.634Z,39.70
2023-02-23T11:56:02.670Z,39.68
2023-02-23T11:58:40.459Z,39.26
2023-02-23T12:01:12.420Z,39.29
2023-02-23T12:03:47.898Z,38.87
2023-02-23T12:06:31.095Z,39.25
2023-02-23T12:09:06.560Z,39.14
2023-02-23T12:11:40.833Z,39.41
2023-02-23T12:14:13.646Z,38.79
2023-02-23T12:16:45.056Z,39.21
2023-02-23T12:19:25.613Z,39.80
2023-02-23T12:22:03.746Z,39.53
2023-02-23T12:24:43.744Z,38.46
2023-02-23T12:27:17.177Z,38.79
2023-02-23T12:30:10.980Z,39.49
2023-02-23T12:32:51.221Z,39.91
2023-02-23T12:35:24.788Z,39.90
2023-02-23T12:38:01.326Z,40.35
2023-02-23T12:40:33.943Z,40.30
2023-02-23T12:43:08.663Z,40.58
2023-02-23T12:45:46.326Z,40.38
2023-02-23T12:48:29.846Z,40.85
2023-02-23T12:51:00.182Z,41.39
2023-02-23T12:53:39.628Z,40.76
2023-02-23T12:56:33.972Z,40.87
2023-02-23T12:59:20.244Z,40.53
2023-02-23T13:01:54.130Z,40.57
2023-02-23T13:04:58.455Z,40.34
2023-02-23T13:07:34.711Z,40.71
2023-02-23T13:10:17.341Z,41.01
2023-02-23T13:12:55.324Z,40.51
2023-02-23T13:15:31.364Z,40.67
2023-02-23T13:18:10.547Z,40.63
2023-02-23T13:20:42.490Z,41.00
2023-02-23T13:23:21.832Z,40.87
2023-02-23T13:26:00.663Z,40.84
2023-02-23T13:28:39.578Z,41.34
2023-02-23T13:31:20.704Z,41.33
2023-02-23T13:33:50.444Z,40.97
2023-02-23T13:36:20.647Z,41.33
2023-02-23T13:39:17.936Z,41.81
2023-02-23T13:41:53.540Z,41.89
2023-02-23T13:44:28.233Z,42.14
2023-02-23T13:47:01.373Z,41.58
2023-02-23T13:49:39.840Z,41.83
2023-02-23T13:52:30.546Z,41.53
2023-02-23T13:55:03.996Z,41.78
2023-02-23T13:57:35.427Z,42.10
2023-02-23T14:00:04.441Z,41.94
2023-02-23T14:02:37.677Z,41.96
2023-02-23T14:05:14.180Z,41.71
2023-02-23T14:07:46.717Z,41.73
2023-02-23T14:10:21.180Z,41.63
2023-02-23T14:13:26.200Z,41.83
2023-02-23T14:16:12.108Z,43.24
2023-02-23T14:18:56.016Z,45.41
2023-02-23T14:21:31.535Z,46.50
2023-02-23T14:24:06.606Z,47.36
2023-02-23T14:26:43.864Z,47.60
2023-02-23T14:29:29.347Z,48.42
2023-02-23T14:32:04.187Z,49.19
2023-02-23T14:34:58.264Z,49.96
2023-02-23T14:37:32.100Z,50.61
2023-02-23T14:40:10.963Z,51.08
2023-02-23T14:42:40.144Z,50.97
2023-02-23T14:45:20.559Z,51.04
2023-02-23T14:47:52.259Z,51.28
2023-02-23T14:50:27.377Z,51.81
2023-02-23T14:52:57.937Z,51.90
2023-02-23T14:55:29.418Z,52.12
2023-02-23T14:57:58.388Z,52.26
2023-02-23T15:00:32.658Z,52.55
2023-02-23T15:03:03.017Z,52.90
2023-02-23T15:05:32.813Z,53.71
2023-02-23T15:08:02.460Z,54.03
2023-02-23T15:10:35.341Z,54.90
2023-02-23T15:13:11.456Z,55.01
2023-02-23T15:15:45.989Z,55.05
2023-02-23T15:18:23.070Z,55.30
2023-02-23T15:20:51.964Z,56.73
2023-02-23T15:23:21.533Z,56.40
2023-02-23T15:25:51.324Z,57.02
2023-02-23T15:28:24.077Z,57.99
2023-02-23T15:30:55.326Z,58.25
2023-02-23T15:33:28.622Z,59.23
2023-02-23T15:36:03.482Z,59.17
2023-02-23T15:38:43.483Z,60.26
2023-02-23T15:41:18.916Z,60.60
2023-02-23T15:43:47.204Z,61.05
2023-02-23T15:46:31.994Z,61.15
2023-02-23T15:49:03.420Z,61.96
2023-02-23T15:51:37.165Z,63.00
2023-02-23T15:54:14.167Z,63.13
2023-02-23T15:56:46.999Z,63.72
2023-02-23T15:59:21.954Z,64.34
2023-02-23T16:01:55.064Z,64.98
2023-02-23T16:04:33.240Z,65.75
2023-02-23T16:07:16.438Z,66.39
2023-02-23T16:09:50.729Z,66.59
2023-02-23T16:12:22.570Z,67.33
2023-02-23T16:14:55.181Z,67.96
2023-02-23T16:17:30.730Z,68.66
2023-02-23T16:20:12.997Z,68.94
2023-02-23T16:22:48.441Z,69.79
2023-02-23T16:25:22.031Z,70.68
2023-02-23T16:27:59.693Z,71.84
2023-02-23T16:30:37.621Z,72.56
2023-02-23T16:33:19.233Z,73.21
2023-02-23T16:35:49.549Z,73.61
2023-02-23T16:38:27.903Z,74.19
2023-02-23T16:40:56.001Z,74.69
2023-02-23T16:43:23.896Z,75.88
2023-02-23T16:45:52.061Z,76.10
2023-02-23T16:48:21.310Z,76.78
2023-02-23T16:50:50.620Z,77.77
2023-02-23T16:53:18.637Z,78.45
2023-02-23T16:55:50.197Z,78.65
2023-02-23T16:58:20.840Z,80.04
2023-02-23T17:00:49.112Z,80.74
2023-02-23T17:03:21.439Z,81.05
2023-02-23T17:05:50.704Z,81.85
2023-02-23T17:08:19.289Z,82.90
2023-02-23T17:10:50.669Z,83.60
2023-02-23T17:13:20.713Z,84.73
2023-02-23T17:15:52.354Z,85.40
2023-02-23T17:20:56.078Z,88.58
2023-02-23T17:23:26.972Z,89.23
2023-02-23T17:25:55.845Z,90.00
2023-02-23T17:28:23.832Z,90.77
2023-02-23T17:30:51.782Z,91.91
2023-02-23T17:33:20.228Z,92.25
2023-02-23T17:35:48.179Z,93.20
2023-02-23T17:38:23.429Z,94.13
2023-02-23T17:40:51.909Z,94.63
2023-02-23T17:43:21.254Z,95.84
2023-02-23T17:45:50.383Z,97.04
2023-02-23T17:48:18.750Z,97.62
2023-02-23T17:50:46.861Z,99.16
2023-02-23T17:53:14.816Z,98.96
2023-02-23T17:55:44.061Z,100.00
2023-02-23T17:58:14.104Z,100.00
2023-02-23T18:00:41.953Z,100.00
2023-02-23T18:03:09.882Z,100.00
2023-02-23T18:05:37.933Z,100.00
2023-02-23T18:08:06.042Z,100.00
2023-02-23T18:10:37.695Z,100.00
2023-02-23T18:13:07.554Z,100.00
2023-02-23T18:15:35.661Z,100.00
2023-02-23T18:18:04.885Z,100.00
2023-02-23T18:20:33.177Z,100.00
2023-02-23T18:23:02.281Z,100.00
2023-02-23T18:25:31.725Z,100.00
2023-02-23T18:28:00.065Z,100.00
2023-02-23T18:30:29.620Z,100.00
2023-02-23T18:33:00.530Z,100.00
2023-02-23T18:35:28.694Z,100.00
2023-02-23T18:37:56.712Z,100.00
2023-02-23T18:40:26.241Z,100.00
2023-02-23T18:42:54.184Z,100.00
2023-02-23T18:45:23.881Z,100.00
2023-02-23T18:47:53.190Z,100.00
2023-02-23T18:50:21.829Z,100.00
2023-02-23T18:52:51.415Z,100.00
2023-02-23T18:55:19.809Z,100.00
2023-02-23T18:57:49.600Z,100.00
2023-02-23T19:00:18.761Z,100.00
2023-02-23T19:02:47.518Z,100.00
2023-02-23T19:05:21.037Z,100.00
2023-02-23T19:07:49.918Z,100.00
2023-02-23T19:10:18.039Z,100.00
2023-02-23T19:12:45.903Z,100.00
2023-02-23T19:15:14.180Z,100.00
2023-02-23T19:17:44.603Z,100.00
2023-02-23T19:20:14.662Z,100.00
2023-02-23T19:22:45.824Z,100.00
2023-02-23T19:25:15.118Z,100.00
2023-02-23T19:27:43.390Z,100.00
2023-02-23T19:30:12.974Z,100.00
2023-02-23T19:32:44.932Z,100.00
2023-02-23T19:35:15.797Z,100.00
2023-02-23T19:37:53.086Z,100.00
2023-02-23T19:40:24.010Z,100.00
2023-02-23T19:42:53.231Z,100.00
2023-02-23T19:45:22.378Z,100.00
2023-02-23T19:47:53.177Z,100.00
2023-02-23T19:50:22.522Z,100.00
2023-02-23T19:52:51.838Z,100.00
2023-02-23T19:55:20.974Z,100.00
2023-02-23T19:57:49.078Z,100.00
2023-02-23T20:00:18.021Z,100.00
2023-02-23T20:02:47.726Z,100.00
2023-02-23T20:05:17.710Z,100.00
2023-02-23T20:07:46.061Z,100.00
2023-02-23T20:10:16.284Z,100.00
2023-02-23T20:12:45.291Z,100.00
2023-02-23T20:15:15.239Z,100.00
2023-02-23T20:17:43.717Z,100.00
2023-02-23T21:25:00.406Z,100.00
2023-02-23T21:27:28.612Z,100.00
2023-02-23T21:29:56.421Z,100.00
2023-02-23T21:32:27.118Z,100.00
2023-02-23T21:34:55.088Z,100.00
2023-02-23T21:37:22.954Z,100.00
2023-02-23T21:39:51.238Z,100.00
2023-02-23T21:42:23.022Z,100.00
2023-02-23T21:44:51.750Z,100.00
2023-02-23T21:47:19.616Z,100.00
2023-02-23T21:49:49.422Z,100.00
2023-02-23T21:52:17.856Z,100.00
2023-02-23T21:54:51.541Z,100.00
2023-02-23T21:57:22.688Z,100.00
2023-02-23T21:59:50.545Z,100.00
2023-02-23T22:02:18.424Z,100.00
2023-02-23T22:04:47.572Z,100.00
2023-02-23T22:07:16.832Z,100.00
2023-02-23T22:09:47.300Z,100.00
2023-02-23T22:12:15.293Z,100.00
2023-02-23T22:14:44.746Z,100.00
2023-02-23T22:17:12.936Z,100.00
2023-02-23T22:19:40.826Z,100.00
2023-02-23T22:22:08.903Z,100.00
2023-02-23T22:24:36.874Z,100.00
2023-02-23T22:27:04.892Z,100.00
2023-02-23T22:29:32.796Z,100.00
2023-02-23T22:32:02.434Z,100.00
2023-02-23T22:34:30.444Z,100.00
2023-02-23T22:36:58.575Z,100.00
2023-02-23T22:39:26.445Z,100.00
2023-02-23T22:41:54.289Z,100.00
2023-02-23T22:44:22.733Z,100.00
2023-02-23T22:46:50.748Z,100.00
2023-02-23T22:49:20.486Z,100.00
2023-02-23T22:51:48.658Z,100.00
2023-02-23T22:54:17.475Z,100.00
2023-02-23T22:56:46.854Z,100.00
2023-02-23T22:59:17.456Z,100.00
2023-02-23T23:01:47.505Z,100.00
2023-02-23T23:04:15.562Z,100.00
2023-02-23T23:06:46.242Z,100.00
2023-02-23T23:09:16.488Z,100.00
2023-02-23T23:11:44.987Z,100.00
2023-02-23T23:14:13.620Z,100.00
2023-02-23T23:16:48.087Z,100.00
2023-02-23T23:19:18.149Z,100.00
2023-02-23T23:21:47.413Z,100.00
2023-02-23T23:24:16.061Z,100.00
2023-02-23T23:26:44.468Z,100.00
2023-02-23T23:29:15.226Z,100.00
2023-02-23T23:31:46.451Z,100.00
2023-02-23T23:34:17.231Z,100.00
2023-02-23T23:36:49.461Z,100.00
2023-02-23T23:39:18.470Z,100.00
2023-02-23T23:41:48.104Z,100.00
2023-02-23T23:44:17.267Z,100.00
2023-02-23T23:46:46.626Z,100.00
2023-02-23T23:49:17.794Z,100.00
2023-02-23T23:51:50.404Z,100.00
2023-02-23T23:54:21.533Z,100.00
2023-02-23T23:56:50.281Z,100.00
2023-02-23T23:59:21.971Z,100.00
